createdAt,value
2023-12-11T00:00:13.888Z,2.63
2023-12-11T00:02:40.282Z,2.22
2023-12-11T00:05:07.018Z,2.53
2023-12-11T00:07:33.710Z,2.40
2023-12-11T00:10:00.084Z,2.13
2023-12-11T00:12:26.461Z,2.28
2023-12-11T00:14:52.852Z,2.15
2023-12-11T00:17:19.214Z,2.17
2023-12-11T00:19:45.595Z,3.05
2023-12-11T00:22:12.275Z,2.78
2023-12-11T00:24:38.619Z,2.55
2023-12-11T00:27:05.019Z,2.63
2023-12-11T00:29:31.306Z,2.50
2023-12-11T00:31:57.618Z,2.72
2023-12-11T00:34:24.261Z,2.85
2023-12-11T00:36:50.712Z,2.55
2023-12-11T00:39:17.391Z,2.78
2023-12-11T00:41:44.733Z,2.40
2023-12-11T00:44:11.089Z,2.70
2023-12-11T00:46:37.479Z,2.42
2023-12-11T00:49:03.974Z,2.60
2023-12-11T00:51:30.581Z,2.95
2023-12-11T00:53:56.940Z,2.90
2023-12-11T00:56:23.563Z,2.78
2023-12-11T00:58:49.922Z,2.42
2023-12-11T01:01:16.300Z,2.40
2023-12-11T01:03:42.750Z,2.95
2023-12-11T01:06:09.232Z,3.05
2023-12-11T01:08:39.956Z,3.13
2023-12-11T01:11:07.259Z,2.70
2023-12-11T01:13:33.583Z,3.42
2023-12-11T01:16:00.030Z,3.75
2023-12-11T01:18:27.215Z,2.90
2023-12-11T01:20:53.651Z,2.60
2023-12-11T01:23:19.959Z,3.15
2023-12-11T01:25:46.295Z,3.33
2023-12-11T01:28:12.656Z,2.67
2023-12-11T01:30:39.010Z,2.60
2023-12-11T01:33:05.812Z,2.97
2023-12-11T01:35:35.125Z,2.88
2023-12-11T01:38:01.479Z,2.75
2023-12-11T01:40:27.810Z,3.47
2023-12-11T01:43:04.377Z,3.55
2023-12-11T01:45:37.189Z,2.63
2023-12-11T01:48:03.916Z,2.75
2023-12-11T01:50:30.956Z,2.85
2023-12-11T01:52:57.313Z,2.78
2023-12-11T01:55:23.942Z,2.78
2023-12-11T01:57:50.438Z,3.40
2023-12-11T02:00:17.126Z,2.95
2023-12-11T02:02:43.596Z,2.58
2023-12-11T02:05:10.229Z,3.40
2023-12-11T02:07:36.576Z,2.90
2023-12-11T02:10:02.984Z,2.78
2023-12-11T02:12:29.447Z,2.88
2023-12-11T02:14:55.849Z,2.42
2023-12-11T02:17:23.377Z,2.65
2023-12-11T02:19:49.886Z,2.53
2023-12-11T02:22:16.664Z,2.47
2023-12-11T02:24:46.991Z,3.30
2023-12-11T02:27:13.426Z,2.35
2023-12-11T02:29:40.334Z,2.42
2023-12-11T02:32:06.866Z,2.55
2023-12-11T02:34:33.668Z,2.20
2023-12-11T02:37:02.686Z,2.60
2023-12-11T02:39:29.047Z,2.58
2023-12-11T02:41:55.668Z,2.45
2023-12-11T02:44:23.334Z,2.70
2023-12-11T02:46:50.570Z,2.38
2023-12-11T02:49:17.041Z,2.67
2023-12-11T02:51:43.481Z,2.58
2023-12-11T02:54:10.063Z,2.42
2023-12-11T02:56:38.684Z,2.40
2023-12-11T02:59:06.592Z,2.35
2023-12-11T03:01:33.247Z,2.00
2023-12-11T03:03:59.774Z,2.10
2023-12-11T03:06:27.716Z,2.28
2023-12-11T03:08:54.103Z,2.70
2023-12-11T03:11:20.445Z,2.55
2023-12-11T03:13:46.845Z,2.30
2023-12-11T03:16:13.674Z,1.77
2023-12-11T03:18:41.514Z,1.90
2023-12-11T03:21:08.247Z,2.15
2023-12-11T03:23:34.734Z,2.50
2023-12-11T03:26:01.039Z,2.40
2023-12-11T03:28:29.398Z,2.22
2023-12-11T03:30:56.498Z,1.90
2023-12-11T03:33:22.862Z,1.73
2023-12-11T03:35:49.183Z,2.40
2023-12-11T03:38:15.497Z,2.40
2023-12-11T03:40:41.863Z,2.10
2023-12-11T03:43:08.231Z,2.05
2023-12-11T03:45:34.565Z,2.70
2023-12-11T03:48:00.981Z,2.45
2023-12-11T03:50:27.360Z,2.20
2023-12-11T03:52:53.765Z,2.40
2023-12-11T03:55:20.222Z,2.20
2023-12-11T03:57:46.842Z,2.28
2023-12-11T04:00:13.542Z,2.40
2023-12-11T04:02:39.941Z,2.20
2023-12-11T04:05:06.557Z,2.35
2023-12-11T04:07:33.001Z,1.95
2023-12-11T04:09:59.544Z,1.85
2023-12-11T04:12:25.911Z,2.08
2023-12-11T04:14:52.241Z,2.05
2023-12-11T04:17:18.609Z,1.90
2023-12-11T04:19:45.047Z,2.22
2023-12-11T04:22:11.519Z,2.38
2023-12-11T04:24:37.904Z,1.98
2023-12-11T04:27:04.443Z,2.00
2023-12-11T04:29:31.367Z,2.25
2023-12-11T04:31:57.892Z,2.28
2023-12-11T04:34:24.218Z,1.98
2023-12-11T04:36:50.727Z,2.00
2023-12-11T04:39:17.157Z,2.00
2023-12-11T04:41:43.481Z,1.83
2023-12-11T04:44:09.793Z,2.10
2023-12-11T04:46:36.135Z,1.92
2023-12-11T04:49:02.591Z,2.10
2023-12-11T04:51:28.933Z,2.00
2023-12-11T04:53:55.280Z,1.67
2023-12-11T04:56:23.952Z,1.70
2023-12-11T04:58:50.247Z,1.83
2023-12-11T05:01:16.630Z,1.52
2023-12-11T05:03:43.095Z,2.70
2023-12-11T05:06:09.714Z,1.80
2023-12-11T05:08:36.251Z,2.45
2023-12-11T05:11:02.795Z,2.00
2023-12-11T05:13:29.438Z,1.75
2023-12-11T05:15:56.258Z,1.90
2023-12-11T05:18:22.661Z,1.92
2023-12-11T05:20:49.244Z,2.40
2023-12-11T05:23:15.611Z,2.10
2023-12-11T05:25:41.964Z,2.10
2023-12-11T05:28:08.337Z,1.90
2023-12-11T05:30:34.740Z,1.75
2023-12-11T05:33:01.250Z,1.98
2023-12-11T05:35:27.649Z,2.15
2023-12-11T05:37:57.527Z,1.65
2023-12-11T05:40:25.431Z,2.22
2023-12-11T05:42:52.345Z,2.30
2023-12-11T05:45:19.044Z,2.30
2023-12-11T05:47:45.408Z,1.92
2023-12-11T05:50:13.087Z,2.22
2023-12-11T05:52:39.612Z,2.35
2023-12-11T05:55:06.098Z,2.00
2023-12-11T05:57:32.704Z,2.05
2023-12-11T05:59:59.241Z,2.22
2023-12-11T06:02:26.511Z,2.20
2023-12-11T06:04:53.774Z,2.50
2023-12-11T06:07:20.548Z,4.30
2023-12-11T06:09:46.938Z,2.30
2023-12-11T06:12:13.399Z,2.45
2023-12-11T06:14:40.608Z,2.50
2023-12-11T06:17:07.104Z,2.25
2023-12-11T06:19:33.469Z,2.72
2023-12-11T06:21:59.839Z,2.75
2023-12-11T06:24:26.307Z,2.50
2023-12-11T06:26:52.674Z,2.50
2023-12-11T06:29:18.986Z,2.38
2023-12-11T06:31:45.313Z,2.55
2023-12-11T06:34:11.685Z,2.20
2023-12-11T06:36:38.091Z,2.90
2023-12-11T06:39:04.705Z,2.40
2023-12-11T06:41:31.243Z,2.70
2023-12-11T06:43:58.688Z,2.95
2023-12-11T06:46:29.947Z,3.13
2023-12-11T06:48:57.789Z,2.58
2023-12-11T06:51:27.436Z,2.70
2023-12-11T06:53:59.464Z,8.85
2023-12-11T06:56:26.647Z,3.00
2023-12-11T06:58:53.084Z,2.70
2023-12-11T07:01:19.705Z,2.50
2023-12-11T07:03:46.444Z,3.05
2023-12-11T07:06:13.246Z,2.83
2023-12-11T07:08:39.598Z,2.85
2023-12-11T07:11:06.254Z,2.72
2023-12-11T07:13:32.962Z,2.42
2023-12-11T07:15:59.498Z,2.38
2023-12-11T07:18:25.948Z,2.30
2023-12-11T07:20:52.344Z,2.42
2023-12-11T07:23:19.036Z,2.28
2023-12-11T07:25:46.218Z,3.03
2023-12-11T07:28:12.761Z,2.53
2023-12-11T07:30:39.189Z,2.72
2023-12-11T07:33:05.797Z,2.92
2023-12-11T07:35:32.221Z,2.67
2023-12-11T07:37:58.772Z,2.92
2023-12-11T07:40:25.232Z,3.30
2023-12-11T07:42:51.623Z,2.47
2023-12-11T07:45:18.341Z,2.70
2023-12-11T07:47:44.709Z,2.80
2023-12-11T07:50:11.251Z,2.42
2023-12-11T07:52:37.955Z,2.80
2023-12-11T07:55:04.485Z,2.47
2023-12-11T07:57:31.056Z,3.08
2023-12-11T07:59:57.586Z,2.47
2023-12-11T08:02:23.921Z,2.33
2023-12-11T08:04:50.362Z,2.72
2023-12-11T08:07:17.090Z,3.00
2023-12-11T08:09:43.760Z,3.17
2023-12-11T08:12:10.240Z,2.80
2023-12-11T08:14:39.160Z,3.00
2023-12-11T08:17:06.066Z,3.17
2023-12-11T08:19:33.754Z,2.63
2023-12-11T08:22:00.761Z,2.78
2023-12-11T08:24:27.165Z,3.00
2023-12-11T08:26:53.568Z,3.20
2023-12-11T08:29:21.095Z,2.80
2023-12-11T08:31:47.418Z,3.05
2023-12-11T08:34:13.853Z,3.33
2023-12-11T08:36:40.284Z,3.10
2023-12-11T08:39:07.449Z,3.30
2023-12-11T08:41:34.981Z,3.22
2023-12-11T08:44:01.315Z,3.30
2023-12-11T08:46:27.839Z,3.40
2023-12-11T08:48:54.253Z,3.22
2023-12-11T08:51:20.907Z,3.20
2023-12-11T08:53:47.332Z,3.17
2023-12-11T08:56:14.884Z,3.20
2023-12-11T08:58:43.005Z,3.35
2023-12-11T09:01:09.617Z,3.40
2023-12-11T09:03:38.398Z,3.00
2023-12-11T09:06:05.022Z,2.83
2023-12-11T09:08:31.328Z,3.33
2023-12-11T09:10:57.652Z,2.95
2023-12-11T09:13:26.524Z,2.60
2023-12-11T09:15:54.930Z,2.92
2023-12-11T09:18:21.432Z,4.75
2023-12-11T09:20:48.083Z,3.67
2023-12-11T09:23:15.994Z,3.78
2023-12-11T09:25:42.597Z,3.20
2023-12-11T09:28:08.972Z,3.17
2023-12-11T09:30:35.296Z,2.88
2023-12-11T09:33:01.861Z,3.13
2023-12-11T09:35:29.084Z,3.20
2023-12-11T09:37:55.797Z,3.30
2023-12-11T09:40:23.078Z,2.90
2023-12-11T09:42:51.951Z,2.90
2023-12-11T09:45:20.045Z,3.00
2023-12-11T09:47:51.042Z,2.95
2023-12-11T09:50:20.685Z,3.08
2023-12-11T09:52:47.093Z,2.83
2023-12-11T09:55:13.687Z,3.00
2023-12-11T09:57:41.606Z,2.90
2023-12-11T10:00:09.032Z,2.80
2023-12-11T10:02:35.794Z,3.05
2023-12-11T10:05:03.829Z,3.40
2023-12-11T10:07:31.316Z,2.80
2023-12-11T10:09:57.881Z,3.05
2023-12-11T10:12:24.205Z,3.20
2023-12-11T10:15:01.096Z,9.55
2023-12-11T10:17:27.735Z,3.17
2023-12-11T10:19:54.468Z,3.30
2023-12-11T10:22:31.402Z,2.85
2023-12-11T10:24:58.606Z,2.90
2023-12-11T10:27:25.202Z,3.22
2023-12-11T10:30:06.905Z,3.05
2023-12-11T10:32:33.268Z,3.17
2023-12-11T10:34:59.694Z,2.85
2023-12-11T10:37:30.408Z,3.15
2023-12-11T10:39:57.589Z,3.10
2023-12-11T10:42:24.460Z,2.60
2023-12-11T10:44:54.020Z,3.33
2023-12-11T10:47:21.551Z,3.72
2023-12-11T10:49:48.002Z,2.83
2023-12-11T10:52:14.590Z,2.97
2023-12-11T10:54:44.113Z,3.40
2023-12-11T10:57:14.637Z,2.47
2023-12-11T10:59:41.237Z,6.15
2023-12-11T11:02:08.848Z,3.05
2023-12-11T11:04:37.640Z,2.78
2023-12-11T11:07:08.380Z,2.97
2023-12-11T11:09:40.080Z,2.97
2023-12-11T11:12:14.213Z,3.20
2023-12-11T11:14:44.159Z,3.08
2023-12-11T11:17:10.826Z,3.10
2023-12-11T11:19:37.301Z,3.03
2023-12-11T11:22:08.032Z,2.63
2023-12-11T11:24:36.132Z,3.30
2023-12-11T11:27:03.207Z,3.00
2023-12-11T11:29:42.681Z,2.70
2023-12-11T11:32:09.766Z,2.40
2023-12-11T11:34:42.176Z,2.78
2023-12-11T11:37:09.620Z,8.60
2023-12-11T11:39:55.114Z,3.15
2023-12-11T11:42:22.041Z,3.35
2023-12-11T11:44:48.342Z,2.90
2023-12-11T11:47:18.812Z,2.95
2023-12-11T11:49:45.271Z,3.42
2023-12-11T11:52:13.111Z,3.22
2023-12-11T11:54:40.199Z,3.13
2023-12-11T11:57:10.362Z,3.13
2023-12-11T11:59:46.215Z,3.30
2023-12-11T12:02:12.780Z,2.88
2023-12-11T12:04:39.257Z,2.60
2023-12-11T12:07:06.671Z,3.38
2023-12-11T12:09:34.640Z,3.55
2023-12-11T12:12:01.586Z,3.38
2023-12-11T12:14:28.321Z,2.70
2023-12-11T12:16:56.168Z,2.72
2023-12-11T12:19:32.779Z,3.17
2023-12-11T12:22:00.095Z,2.97
2023-12-11T12:24:26.828Z,2.97
2023-12-11T12:26:55.317Z,3.35
2023-12-11T12:29:21.598Z,4.20
2023-12-11T12:31:48.451Z,3.20
2023-12-11T12:34:15.760Z,2.92
2023-12-11T12:36:43.533Z,2.83
2023-12-11T12:39:12.356Z,3.22
2023-12-11T12:41:38.899Z,2.65
2023-12-11T12:44:05.303Z,2.55
2023-12-11T12:46:38.216Z,3.05
2023-12-11T12:49:08.700Z,2.72
2023-12-11T12:51:43.659Z,2.63
2023-12-11T12:54:11.979Z,2.88
2023-12-11T12:56:38.391Z,3.20
2023-12-11T12:59:04.725Z,3.22
2023-12-11T13:01:40.709Z,3.03
2023-12-11T13:04:08.210Z,2.72
2023-12-11T13:06:34.893Z,3.10
2023-12-11T13:09:01.656Z,2.80
2023-12-11T13:11:44.319Z,3.53
2023-12-11T13:14:13.024Z,2.70
2023-12-11T13:16:46.220Z,3.00
2023-12-11T13:19:14.871Z,2.72
2023-12-11T13:21:42.512Z,3.95
2023-12-11T13:24:08.873Z,4.82
2023-12-11T13:26:35.436Z,6.13
2023-12-11T13:29:01.932Z,3.55
2023-12-11T13:31:28.299Z,3.45
2023-12-11T13:33:55.012Z,3.25
2023-12-11T13:36:21.492Z,2.72
2023-12-11T13:38:47.860Z,3.33
2023-12-11T13:41:14.738Z,3.53
2023-12-11T13:43:41.081Z,3.10
2023-12-11T13:46:07.735Z,3.58
2023-12-11T13:48:34.458Z,3.22
2023-12-11T13:51:01.395Z,3.42
2023-12-11T13:53:28.088Z,3.20
2023-12-11T13:55:54.415Z,3.28
2023-12-11T13:58:20.914Z,3.20
2023-12-11T14:00:47.494Z,3.65
2023-12-11T14:03:13.873Z,3.33
2023-12-11T14:05:40.189Z,3.17
2023-12-11T14:08:06.612Z,3.10
2023-12-11T14:10:34.618Z,3.22
2023-12-11T14:13:01.031Z,3.72
2023-12-11T14:15:28.842Z,3.38
2023-12-11T14:17:55.240Z,3.05
2023-12-11T14:20:21.763Z,3.65
2023-12-11T14:22:48.072Z,2.70
2023-12-11T14:25:16.311Z,3.03
2023-12-11T14:27:42.840Z,3.20
2023-12-11T14:30:11.047Z,3.30
2023-12-11T14:32:38.549Z,2.72
2023-12-11T14:35:05.966Z,7.32
2023-12-11T14:37:32.950Z,3.50
2023-12-11T14:39:59.571Z,2.67
2023-12-11T14:42:27.954Z,2.85
2023-12-11T14:44:54.898Z,2.60
2023-12-11T14:47:22.043Z,2.75
2023-12-11T14:49:48.605Z,2.40
2023-12-11T14:52:15.084Z,2.70
2023-12-11T14:54:41.609Z,2.70
2023-12-11T14:57:08.031Z,2.30
2023-12-11T14:59:34.448Z,2.75
2023-12-11T15:02:00.864Z,2.58
2023-12-11T15:04:27.504Z,2.65
2023-12-11T15:06:54.352Z,13.13
2023-12-11T15:09:20.754Z,3.15
2023-12-11T15:11:47.178Z,2.92
2023-12-11T15:14:13.993Z,2.92
2023-12-11T15:16:42.165Z,2.88
2023-12-11T15:19:08.917Z,2.90
2023-12-11T15:21:35.475Z,4.13
2023-12-11T15:24:01.808Z,8.15
2023-12-11T15:26:28.121Z,10.70
2023-12-11T15:28:54.852Z,3.88
2023-12-11T15:31:24.460Z,3.20
2023-12-11T15:33:51.305Z,3.10
2023-12-11T15:36:19.216Z,3.75
2023-12-11T15:38:45.834Z,3.80
2023-12-11T15:41:12.923Z,3.33
2023-12-11T15:43:51.551Z,3.80
2023-12-11T15:46:18.104Z,3.30
2023-12-11T15:48:46.730Z,4.13
2023-12-11T15:51:15.860Z,3.67
2023-12-11T15:53:42.818Z,3.58
2023-12-11T15:56:11.109Z,3.50
2023-12-11T15:58:40.909Z,3.90
2023-12-11T16:01:09.875Z,3.25
2023-12-11T16:03:36.640Z,4.80
2023-12-11T16:06:03.167Z,4.28
2023-12-11T16:08:29.869Z,3.88
2023-12-11T16:10:56.508Z,4.47
2023-12-11T16:13:22.890Z,3.90
2023-12-11T16:15:49.563Z,3.67
2023-12-11T16:18:16.040Z,4.00
2023-12-11T16:20:42.607Z,3.60
2023-12-11T16:23:12.310Z,3.85
2023-12-11T16:25:47.988Z,3.63
2023-12-11T16:28:22.388Z,4.78
2023-12-11T16:30:49.134Z,4.25
2023-12-11T16:33:15.672Z,3.40
2023-12-11T16:35:42.041Z,3.53
2023-12-11T16:38:08.544Z,3.58
2023-12-11T16:40:35.032Z,4.30
2023-12-11T16:43:01.409Z,4.07
2023-12-11T16:45:27.728Z,3.55
2023-12-11T16:47:57.097Z,3.75
2023-12-11T16:50:26.425Z,3.20
2023-12-11T16:52:52.777Z,3.95
2023-12-11T16:55:19.160Z,3.17
2023-12-11T16:57:45.686Z,3.03
2023-12-11T17:00:12.551Z,3.20
2023-12-11T17:02:39.199Z,3.95
2023-12-11T17:05:06.079Z,3.72
2023-12-11T17:07:32.705Z,3.75
2023-12-11T17:10:00.010Z,3.38
2023-12-11T17:12:27.228Z,3.70
2023-12-11T17:14:55.977Z,3.30
2023-12-11T17:17:23.652Z,3.85
2023-12-11T17:19:50.046Z,3.80
2023-12-11T17:22:16.500Z,3.40
2023-12-11T17:24:42.884Z,3.83
2023-12-11T17:27:09.795Z,3.75
2023-12-11T17:29:36.147Z,4.05
2023-12-11T17:32:02.474Z,3.03
2023-12-11T17:34:28.878Z,4.60
2023-12-11T17:36:55.277Z,3.70
2023-12-11T17:39:21.646Z,4.15
2023-12-11T17:41:47.969Z,3.67
2023-12-11T17:44:15.245Z,11.93
2023-12-11T17:46:41.800Z,3.90
2023-12-11T17:49:08.194Z,4.15
2023-12-11T17:51:34.581Z,3.70
2023-12-11T17:54:00.917Z,4.57
2023-12-11T17:56:27.251Z,4.47
2023-12-11T17:58:53.518Z,4.68
2023-12-11T18:01:19.948Z,4.93
2023-12-11T18:03:46.800Z,4.80
2023-12-11T18:06:19.617Z,5.10
2023-12-11T18:08:45.968Z,4.75
2023-12-11T18:11:12.433Z,5.55
2023-12-11T18:13:41.632Z,5.07
2023-12-11T18:16:08.510Z,5.10
2023-12-11T18:18:35.369Z,4.80
2023-12-11T18:21:02.225Z,6.05
2023-12-11T18:23:28.549Z,5.10
2023-12-11T18:25:54.904Z,4.80
2023-12-11T18:28:21.235Z,5.00
2023-12-11T18:30:47.631Z,4.80
2023-12-11T18:33:14.100Z,5.13
2023-12-11T18:35:40.460Z,5.18
2023-12-11T18:38:06.746Z,5.28
2023-12-11T18:40:33.170Z,5.47
2023-12-11T18:42:59.526Z,4.90
2023-12-11T18:45:27.771Z,5.30
2023-12-11T18:47:54.281Z,4.85
2023-12-11T18:50:20.664Z,5.32
2023-12-11T18:52:49.461Z,5.30
2023-12-11T18:55:16.490Z,4.97
2023-12-11T18:57:42.937Z,5.20
2023-12-11T19:00:11.116Z,6.07
2023-12-11T19:02:37.996Z,6.40
2023-12-11T19:05:04.688Z,5.57
2023-12-11T19:07:31.319Z,5.60
2023-12-11T19:09:57.769Z,5.43
2023-12-11T19:12:24.117Z,5.45
2023-12-11T19:14:50.455Z,5.13
2023-12-11T19:17:18.342Z,5.45
2023-12-11T19:19:44.826Z,4.80
2023-12-11T19:22:11.327Z,6.05
2023-12-11T19:24:37.672Z,5.15
2023-12-11T19:27:04.105Z,5.30
2023-12-11T19:29:30.390Z,5.78
2023-12-11T19:31:57.060Z,6.10
2023-12-11T19:34:23.697Z,5.55
2023-12-11T19:36:50.091Z,4.68
2023-12-11T19:39:16.628Z,10.00
2023-12-11T19:41:43.822Z,5.90
2023-12-11T19:44:10.949Z,5.13
2023-12-11T19:46:46.826Z,5.25
2023-12-11T19:49:13.648Z,5.85
2023-12-11T19:51:43.027Z,5.13
2023-12-11T19:54:09.396Z,5.57
2023-12-11T19:56:35.740Z,5.78
2023-12-11T19:59:02.051Z,5.30
2023-12-11T20:01:29.107Z,5.20
2023-12-11T20:03:55.700Z,5.40
2023-12-11T20:06:28.398Z,4.93
2023-12-11T20:08:54.908Z,5.43
2023-12-11T20:11:21.558Z,5.65
2023-12-11T20:13:48.315Z,6.13
2023-12-11T20:16:14.861Z,5.22
2023-12-11T20:18:41.265Z,10.27
2023-12-11T20:21:07.595Z,5.40
2023-12-11T20:23:34.100Z,5.50
2023-12-11T20:26:03.484Z,5.68
2023-12-11T20:28:30.194Z,6.00
2023-12-11T20:30:56.644Z,5.70
2023-12-11T20:33:23.297Z,5.50
2023-12-11T20:35:49.709Z,5.72
2023-12-11T20:38:16.255Z,5.00
2023-12-11T20:40:42.867Z,5.05
2023-12-11T20:43:09.281Z,5.32
2023-12-11T20:45:35.706Z,5.28
2023-12-11T20:48:02.394Z,5.20
2023-12-11T20:50:29.881Z,5.63
2023-12-11T20:52:56.342Z,6.07
2023-12-11T20:55:22.708Z,6.25
2023-12-11T20:57:49.091Z,5.93
2023-12-11T21:00:15.710Z,5.63
2023-12-11T21:02:43.609Z,5.90
2023-12-11T21:05:10.714Z,6.03
2023-12-11T21:07:38.328Z,5.57
2023-12-11T21:10:04.863Z,5.72
2023-12-11T21:12:31.256Z,6.18
2023-12-11T21:14:57.568Z,5.50
2023-12-11T21:17:24.163Z,5.82
2023-12-11T21:19:50.603Z,5.93
2023-12-11T21:22:17.005Z,5.97
2023-12-11T21:24:43.406Z,6.10
2023-12-11T21:27:09.753Z,5.53
2023-12-11T21:29:36.136Z,5.63
2023-12-11T21:32:02.585Z,6.13
2023-12-11T21:34:29.218Z,5.05
2023-12-11T21:36:55.812Z,4.95
2023-12-11T21:39:22.196Z,5.55
2023-12-11T21:41:48.589Z,5.18
2023-12-11T21:44:14.879Z,5.68
2023-12-11T21:46:41.183Z,4.97
2023-12-11T21:49:07.618Z,5.22
2023-12-11T21:51:34.805Z,5.35
2023-12-11T21:54:01.200Z,4.78
2023-12-11T21:56:27.602Z,5.72
2023-12-11T21:58:53.930Z,5.47
2023-12-11T22:01:20.556Z,5.38
2023-12-11T22:03:47.215Z,4.95
2023-12-11T22:06:14.506Z,5.90
2023-12-11T22:08:41.260Z,4.95
2023-12-11T22:11:07.563Z,5.47
2023-12-11T22:13:33.932Z,5.05
2023-12-11T22:16:00.382Z,5.40
2023-12-11T22:18:27.381Z,5.53
2023-12-11T22:20:53.976Z,5.43
2023-12-11T22:23:20.271Z,5.35
2023-12-11T22:25:46.610Z,5.28
2023-12-11T22:28:13.058Z,5.70
2023-12-11T22:30:39.585Z,5.47
2023-12-11T22:33:05.938Z,5.30
2023-12-11T22:35:32.241Z,5.40
2023-12-11T22:37:58.547Z,6.18
2023-12-11T22:40:25.148Z,6.78
2023-12-11T22:42:51.689Z,5.88
2023-12-11T22:45:19.639Z,5.55
2023-12-11T22:47:46.018Z,5.80
2023-12-11T22:50:12.413Z,6.63
2023-12-11T22:52:38.717Z,6.78
2023-12-11T22:55:05.412Z,5.93
2023-12-11T22:57:32.469Z,6.15
2023-12-11T22:59:58.816Z,6.60
2023-12-11T23:02:25.127Z,6.40
2023-12-11T23:04:52.754Z,6.32
2023-12-11T23:07:19.238Z,6.28
2023-12-11T23:09:45.540Z,6.15
2023-12-11T23:12:11.911Z,6.05
2023-12-11T23:14:39.882Z,5.50
2023-12-11T23:17:06.213Z,6.05
2023-12-11T23:19:32.651Z,6.43
2023-12-11T23:21:59.374Z,5.82
2023-12-11T23:24:25.717Z,5.78
2023-12-11T23:26:52.037Z,5.85
2023-12-11T23:29:18.315Z,5.65
2023-12-11T23:31:44.693Z,6.00
2023-12-11T23:34:11.058Z,6.65
2023-12-11T23:36:37.425Z,5.78
2023-12-11T23:39:03.917Z,6.53
2023-12-11T23:41:30.353Z,6.47
2023-12-11T23:43:56.739Z,6.55
2023-12-11T23:46:23.168Z,6.40
2023-12-11T23:48:49.919Z,6.13
2023-12-11T23:51:16.348Z,6.10
2023-12-11T23:53:45.465Z,5.75
2023-12-11T23:56:11.966Z,6.68
2023-12-11T23:58:38.289Z,6.53
